Aérodrome :
LOGIN :

S'inscrire | Disclaimer

   EN    FR    IT 

 










Légende :    VFR   VFR Marginal   IFR   IFR Intensif   IFR Très Intensif
Visi : 
Plafond : 
>= 8 km
>= 3000ft
5 à 8 km
1000 à 3000 ft
1500m à 5 km
500 à 1000 ft
800 à 1500m
200 à 500 ft
< 800m
< 200 ft
Symboles :   Orages  Brouillard  Fortes neiges  Fortes précipitations  Vent > 20 kt
SIGMETs :   Divers  Orages  Givrage  Turbulence  Onde Orograph.  Cendres Volcan.







- Altitude de l'aérodrome : 1367 ft
- Code IATA : FDH


EDNY - Friedrichshafen

DERNIER METAR :
  • 220150Z AUTO 00000KT 9999 // SCT044/// OVC058/// 04/02 Q1031

METARs EXPIRÉS :
  • 220120Z AUTO VRB01KT 9999 // SCT044/// BKN060/// OVC068/// 04/02 Q1031
  • 220050Z AUTO VRB01KT 9999 // SCT045/// OVC077/// 04/02 Q1031
  • 220020Z AUTO 00000KT 9999 // OVC074/// 04/01 Q1031
  • 212350Z AUTO 09001KT 9999 // BKN075/// OVC085/// 04/01 Q1031
  • 212320Z AUTO 00000KT 9999 // BKN076/// OVC088/// 04/01 Q1031

TAF TAF EDNY
Valide du 21 à 18h jusqu'au 22 à 18h UTC


211700Z 2118/2218 VRB02KT 9999 SCT040
TEMPO 2123/2208 4000 BR
BECMG 2212/2214 04005KT
Pas de NOTAMs connus pour ce terrain.



MET'MAP, la Météo Aéronautique d'un coup d'oeil ! - Copyright ORBIFLY Décembre 2007 - Disclaimer

ORBIFLY MET'MAP TEAM :

Programmation & Développement : Alexandra Zaïnal
Conception & Développement : Baudouin d'Aumeries
Co-Programmation & Développement : Marc-Olivier Méhu
Soutien technique & logistique : Manuel Goepfert

Contact : metmap@orbifly.com




SOURCES & CREDITS :

   NOAA